sensor_id;sensor_type;location;lat;lon;timestamp;P1;durP1;ratioP1;P2;durP2;ratioP2
34489;SDS011;20730;49.372;7.324;2023-12-04T00:01:50;32.92;;;16.95;;
34489;SDS011;20730;49.372;7.324;2023-12-04T00:04:17;38.70;;;18.23;;
34489;SDS011;20730;49.372;7.324;2023-12-04T00:06:44;36.70;;;17.25;;
34489;SDS011;20730;49.372;7.324;2023-12-04T00:09:11;37.88;;;18.52;;
34489;SDS011;20730;49.372;7.324;2023-12-04T00:11:38;37.75;;;18.10;;
34489;SDS011;20730;49.372;7.324;2023-12-04T00:14:05;36.15;;;17.10;;
34489;SDS011;20730;49.372;7.324;2023-12-04T00:16:34;40.40;;;17.67;;
34489;SDS011;20730;49.372;7.324;2023-12-04T00:19:04;39.92;;;18.80;;
34489;SDS011;20730;49.372;7.324;2023-12-04T00:21:30;38.50;;;18.17;;
34489;SDS011;20730;49.372;7.324;2023-12-04T00:23:57;35.97;;;17.25;;
34489;SDS011;20730;49.372;7.324;2023-12-04T00:26:24;38.15;;;17.80;;
34489;SDS011;20730;49.372;7.324;2023-12-04T00:28:51;41.60;;;19.58;;
34489;SDS011;20730;49.372;7.324;2023-12-04T00:31:17;39.17;;;18.98;;
34489;SDS011;20730;49.372;7.324;2023-12-04T00:33:44;42.53;;;19.58;;
34489;SDS011;20730;49.372;7.324;2023-12-04T00:36:11;44.50;;;19.95;;
34489;SDS011;20730;49.372;7.324;2023-12-04T00:38:38;51.35;;;24.60;;
34489;SDS011;20730;49.372;7.324;2023-12-04T00:41:04;50.38;;;22.83;;
34489;SDS011;20730;49.372;7.324;2023-12-04T00:43:31;52.92;;;24.77;;
34489;SDS011;20730;49.372;7.324;2023-12-04T00:45:58;55.20;;;25.88;;
34489;SDS011;20730;49.372;7.324;2023-12-04T00:48:25;51.17;;;23.58;;
34489;SDS011;20730;49.372;7.324;2023-12-04T00:50:52;52.30;;;25.05;;
34489;SDS011;20730;49.372;7.324;2023-12-04T00:53:18;51.53;;;23.88;;
34489;SDS011;20730;49.372;7.324;2023-12-04T00:55:45;49.08;;;23.08;;
34489;SDS011;20730;49.372;7.324;2023-12-04T00:58:12;51.83;;;22.77;;
34489;SDS011;20730;49.372;7.324;2023-12-04T01:00:39;47.65;;;22.52;;
34489;SDS011;20730;49.372;7.324;2023-12-04T01:03:06;45.90;;;20.98;;
34489;SDS011;20730;49.372;7.324;2023-12-04T01:05:32;48.92;;;22.23;;
34489;SDS011;20730;49.372;7.324;2023-12-04T01:07:59;45.95;;;20.48;;
34489;SDS011;20730;49.372;7.324;2023-12-04T01:10:26;40.63;;;18.85;;
34489;SDS011;20730;49.372;7.324;2023-12-04T01:12:53;36.55;;;17.33;;
34489;SDS011;20730;49.372;7.324;2023-12-04T01:15:19;36.92;;;17.30;;
34489;SDS011;20730;49.372;7.324;2023-12-04T01:17:47;35.20;;;17.85;;
34489;SDS011;20730;49.372;7.324;2023-12-04T01:20:14;39.08;;;18.25;;
34489;SDS011;20730;49.372;7.324;2023-12-04T01:22:41;38.38;;;18.13;;
34489;SDS011;20730;49.372;7.324;2023-12-04T01:25:08;41.10;;;18.25;;
34489;SDS011;20730;49.372;7.324;2023-12-04T01:27:36;40.10;;;17.50;;
34489;SDS011;20730;49.372;7.324;2023-12-04T01:30:05;39.40;;;17.85;;
34489;SDS011;20730;49.372;7.324;2023-12-04T01:32:34;41.83;;;18.40;;
34489;SDS011;20730;49.372;7.324;2023-12-04T01:35:01;41.25;;;19.17;;
34489;SDS011;20730;49.372;7.324;2023-12-04T01:37:28;41.83;;;19.25;;
34489;SDS011;20730;49.372;7.324;2023-12-04T01:39:55;40.65;;;19.15;;
34489;SDS011;20730;49.372;7.324;2023-12-04T01:42:22;41.28;;;19.13;;
34489;SDS011;20730;49.372;7.324;2023-12-04T01:44:48;40.65;;;18.88;;
34489;SDS011;20730;49.372;7.324;2023-12-04T01:47:15;45.30;;;19.45;;
34489;SDS011;20730;49.372;7.324;2023-12-04T01:49:42;39.45;;;18.00;;
34489;SDS011;20730;49.372;7.324;2023-12-04T01:52:09;40.30;;;17.92;;
34489;SDS011;20730;49.372;7.324;2023-12-04T01:54:36;47.33;;;18.55;;
34489;SDS011;20730;49.372;7.324;2023-12-04T01:57:03;40.72;;;18.40;;
34489;SDS011;20730;49.372;7.324;2023-12-04T01:59:30;38.65;;;17.60;;
34489;SDS011;20730;49.372;7.324;2023-12-04T02:01:57;43.97;;;19.92;;
34489;SDS011;20730;49.372;7.324;2023-12-04T02:04:24;46.03;;;22.80;;
34489;SDS011;20730;49.372;7.324;2023-12-04T02:06:52;58.40;;;24.98;;
34489;SDS011;20730;49.372;7.324;2023-12-04T02:09:19;47.92;;;20.05;;
34489;SDS011;20730;49.372;7.324;2023-12-04T02:11:45;42.60;;;18.50;;
34489;SDS011;20730;49.372;7.324;2023-12-04T02:14:12;35.90;;;17.20;;
34489;SDS011;20730;49.372;7.324;2023-12-04T02:16:40;45.45;;;20.17;;
34489;SDS011;20730;49.372;7.324;2023-12-04T02:19:08;46.40;;;20.92;;
34489;SDS011;20730;49.372;7.324;2023-12-04T02:21:39;44.10;;;18.80;;
34489;SDS011;20730;49.372;7.324;2023-12-04T02:24:06;42.05;;;19.00;;
34489;SDS011;20730;49.372;7.324;2023-12-04T02:26:34;40.42;;;18.27;;
34489;SDS011;20730;49.372;7.324;2023-12-04T02:29:05;37.95;;;16.58;;
34489;SDS011;20730;49.372;7.324;2023-12-04T02:31:34;40.70;;;19.05;;
34489;SDS011;20730;49.372;7.324;2023-12-04T02:34:02;44.25;;;18.98;;
34489;SDS011;20730;49.372;7.324;2023-12-04T02:36:31;38.30;;;17.08;;
34489;SDS011;20730;49.372;7.324;2023-12-04T02:38:58;41.33;;;18.73;;
34489;SDS011;20730;49.372;7.324;2023-12-04T02:41:25;36.83;;;17.35;;
34489;SDS011;20730;49.372;7.324;2023-12-04T02:43:53;43.35;;;17.85;;
34489;SDS011;20730;49.372;7.324;2023-12-04T02:46:19;40.88;;;18.55;;
34489;SDS011;20730;49.372;7.324;2023-12-04T02:48:46;36.28;;;17.38;;
34489;SDS011;20730;49.372;7.324;2023-12-04T02:51:13;41.33;;;17.80;;
34489;SDS011;20730;49.372;7.324;2023-12-04T02:53:39;38.08;;;16.63;;
34489;SDS011;20730;49.372;7.324;2023-12-04T02:56:06;36.92;;;17.92;;
34489;SDS011;20730;49.372;7.324;2023-12-04T02:58:33;34.20;;;16.80;;
34489;SDS011;20730;49.372;7.324;2023-12-04T03:01:00;35.88;;;16.15;;
34489;SDS011;20730;49.372;7.324;2023-12-04T03:03:27;36.72;;;16.60;;
34489;SDS011;20730;49.372;7.324;2023-12-04T03:05:54;34.38;;;15.98;;
34489;SDS011;20730;49.372;7.324;2023-12-04T03:08:21;42.45;;;17.20;;
34489;SDS011;20730;49.372;7.324;2023-12-04T03:10:47;37.03;;;15.88;;
34489;SDS011;20730;49.372;7.324;2023-12-04T03:13:14;36.45;;;16.60;;
34489;SDS011;20730;49.372;7.324;2023-12-04T03:15:41;34.05;;;16.27;;
34489;SDS011;20730;49.372;7.324;2023-12-04T03:18:07;37.55;;;17.80;;
34489;SDS011;20730;49.372;7.324;2023-12-04T03:20:38;37.15;;;16.30;;
34489;SDS011;20730;49.372;7.324;2023-12-04T03:23:04;33.78;;;15.77;;
34489;SDS011;20730;49.372;7.324;2023-12-04T03:25:31;36.70;;;17.23;;
34489;SDS011;20730;49.372;7.324;2023-12-04T03:27:58;36.05;;;16.98;;
34489;SDS011;20730;49.372;7.324;2023-12-04T03:30:24;39.83;;;16.88;;
34489;SDS011;20730;49.372;7.324;2023-12-04T03:32:51;36.65;;;17.30;;
34489;SDS011;20730;49.372;7.324;2023-12-04T03:35:18;36.15;;;16.35;;
34489;SDS011;20730;49.372;7.324;2023-12-04T03:37:45;38.95;;;17.95;;
34489;SDS011;20730;49.372;7.324;2023-12-04T03:40:11;39.75;;;18.63;;
34489;SDS011;20730;49.372;7.324;2023-12-04T03:42:38;39.50;;;18.40;;
34489;SDS011;20730;49.372;7.324;2023-12-04T03:45:05;40.83;;;18.08;;
34489;SDS011;20730;49.372;7.324;2023-12-04T03:47:32;37.08;;;17.20;;
34489;SDS011;20730;49.372;7.324;2023-12-04T03:49:59;40.40;;;17.27;;
34489;SDS011;20730;49.372;7.324;2023-12-04T03:52:25;39.00;;;17.23;;
34489;SDS011;20730;49.372;7.324;2023-12-04T03:54:53;37.70;;;17.55;;
34489;SDS011;20730;49.372;7.324;2023-12-04T03:57:19;33.75;;;16.58;;
34489;SDS011;20730;49.372;7.324;2023-12-04T03:59:46;39.95;;;18.20;;
34489;SDS011;20730;49.372;7.324;2023-12-04T04:02:12;32.38;;;15.45;;
34489;SDS011;20730;49.372;7.324;2023-12-04T04:04:39;33.33;;;16.42;;
34489;SDS011;20730;49.372;7.324;2023-12-04T04:07:06;40.28;;;18.33;;
34489;SDS011;20730;49.372;7.324;2023-12-04T04:09:33;40.30;;;18.85;;
34489;SDS011;20730;49.372;7.324;2023-12-04T04:11:59;43.13;;;18.95;;
34489;SDS011;20730;49.372;7.324;2023-12-04T04:14:26;42.60;;;19.60;;
34489;SDS011;20730;49.372;7.324;2023-12-04T04:16:53;45.38;;;20.35;;
34489;SDS011;20730;49.372;7.324;2023-12-04T04:19:19;39.08;;;18.08;;
34489;SDS011;20730;49.372;7.324;2023-12-04T04:21:46;34.15;;;16.67;;
34489;SDS011;20730;49.372;7.324;2023-12-04T04:24:13;35.17;;;17.70;;
34489;SDS011;20730;49.372;7.324;2023-12-04T04:26:39;36.80;;;17.33;;
34489;SDS011;20730;49.372;7.324;2023-12-04T04:29:06;34.13;;;16.67;;
34489;SDS011;20730;49.372;7.324;2023-12-04T04:31:33;36.17;;;17.15;;
34489;SDS011;20730;49.372;7.324;2023-12-04T04:33:59;35.53;;;16.90;;
34489;SDS011;20730;49.372;7.324;2023-12-04T04:36:26;33.63;;;15.55;;
34489;SDS011;20730;49.372;7.324;2023-12-04T04:38:53;31.35;;;15.88;;
34489;SDS011;20730;49.372;7.324;2023-12-04T04:41:19;33.65;;;15.98;;
34489;SDS011;20730;49.372;7.324;2023-12-04T04:43:46;37.63;;;16.85;;
34489;SDS011;20730;49.372;7.324;2023-12-04T04:46:13;35.40;;;16.10;;
34489;SDS011;20730;49.372;7.324;2023-12-04T04:48:40;32.92;;;15.82;;
34489;SDS011;20730;49.372;7.324;2023-12-04T04:51:07;35.70;;;16.90;;
34489;SDS011;20730;49.372;7.324;2023-12-04T04:53:34;37.58;;;17.15;;
34489;SDS011;20730;49.372;7.324;2023-12-04T04:56:00;31.88;;;16.20;;
34489;SDS011;20730;49.372;7.324;2023-12-04T04:58:27;33.13;;;15.88;;
34489;SDS011;20730;49.372;7.324;2023-12-04T05:00:53;35.22;;;16.27;;
34489;SDS011;20730;49.372;7.324;2023-12-04T05:03:20;32.85;;;15.95;;
34489;SDS011;20730;49.372;7.324;2023-12-04T05:05:49;40.30;;;16.35;;
34489;SDS011;20730;49.372;7.324;2023-12-04T05:08:16;38.80;;;16.23;;
34489;SDS011;20730;49.372;7.324;2023-12-04T05:10:42;34.92;;;15.07;;
34489;SDS011;20730;49.372;7.324;2023-12-04T05:13:09;34.70;;;15.60;;
34489;SDS011;20730;49.372;7.324;2023-12-04T05:15:36;38.88;;;16.80;;
34489;SDS011;20730;49.372;7.324;2023-12-04T05:18:02;32.90;;;15.85;;
34489;SDS011;20730;49.372;7.324;2023-12-04T05:20:29;36.03;;;16.73;;
34489;SDS011;20730;49.372;7.324;2023-12-04T05:22:56;38.65;;;17.95;;
34489;SDS011;20730;49.372;7.324;2023-12-04T05:25:23;35.80;;;16.48;;
34489;SDS011;20730;49.372;7.324;2023-12-04T05:27:56;36.33;;;17.38;;
34489;SDS011;20730;49.372;7.324;2023-12-04T05:30:23;36.35;;;17.08;;
34489;SDS011;20730;49.372;7.324;2023-12-04T05:32:50;36.42;;;16.67;;
34489;SDS011;20730;49.372;7.324;2023-12-04T05:35:17;34.35;;;16.45;;
34489;SDS011;20730;49.372;7.324;2023-12-04T05:37:44;36.88;;;15.98;;
34489;SDS011;20730;49.372;7.324;2023-12-04T05:40:11;35.45;;;16.77;;
34489;SDS011;20730;49.372;7.324;2023-12-04T05:42:38;36.92;;;17.30;;
34489;SDS011;20730;49.372;7.324;2023-12-04T05:45:05;38.70;;;17.70;;
34489;SDS011;20730;49.372;7.324;2023-12-04T05:47:34;36.78;;;15.98;;
34489;SDS011;20730;49.372;7.324;2023-12-04T05:50:01;34.00;;;15.95;;
34489;SDS011;20730;49.372;7.324;2023-12-04T05:52:28;37.97;;;17.45;;
34489;SDS011;20730;49.372;7.324;2023-12-04T05:54:55;35.17;;;16.42;;
34489;SDS011;20730;49.372;7.324;2023-12-04T05:57:22;36.28;;;17.15;;
34489;SDS011;20730;49.372;7.324;2023-12-04T05:59:48;32.85;;;15.82;;
34489;SDS011;20730;49.372;7.324;2023-12-04T06:02:15;35.13;;;16.45;;
34489;SDS011;20730;49.372;7.324;2023-12-04T06:04:42;30.98;;;15.30;;
34489;SDS011;20730;49.372;7.324;2023-12-04T06:07:08;35.63;;;16.38;;
34489;SDS011;20730;49.372;7.324;2023-12-04T06:09:35;36.67;;;17.30;;
34489;SDS011;20730;49.372;7.324;2023-12-04T06:12:05;36.77;;;16.70;;
34489;SDS011;20730;49.372;7.324;2023-12-04T06:14:34;36.80;;;16.17;;
34489;SDS011;20730;49.372;7.324;2023-12-04T06:17:01;37.63;;;18.27;;
34489;SDS011;20730;49.372;7.324;2023-12-04T06:19:28;30.70;;;15.82;;
34489;SDS011;20730;49.372;7.324;2023-12-04T06:21:56;34.30;;;17.33;;
34489;SDS011;20730;49.372;7.324;2023-12-04T06:24:22;35.20;;;17.05;;
34489;SDS011;20730;49.372;7.324;2023-12-04T06:26:49;36.50;;;18.33;;
34489;SDS011;20730;49.372;7.324;2023-12-04T06:29:17;34.50;;;15.80;;
34489;SDS011;20730;49.372;7.324;2023-12-04T06:31:45;33.53;;;16.45;;
34489;SDS011;20730;49.372;7.324;2023-12-04T06:34:12;40.00;;;18.15;;
34489;SDS011;20730;49.372;7.324;2023-12-04T06:36:40;36.65;;;17.60;;
34489;SDS011;20730;49.372;7.324;2023-12-04T06:39:11;33.80;;;16.75;;
34489;SDS011;20730;49.372;7.324;2023-12-04T06:41:42;37.00;;;16.88;;
34489;SDS011;20730;49.372;7.324;2023-12-04T06:44:09;35.00;;;16.40;;
34489;SDS011;20730;49.372;7.324;2023-12-04T06:46:37;31.02;;;15.35;;
34489;SDS011;20730;49.372;7.324;2023-12-04T06:49:04;35.20;;;17.15;;
34489;SDS011;20730;49.372;7.324;2023-12-04T06:51:33;33.65;;;16.35;;
34489;SDS011;20730;49.372;7.324;2023-12-04T06:53:59;34.00;;;17.67;;
34489;SDS011;20730;49.372;7.324;2023-12-04T06:56:26;39.05;;;17.30;;
34489;SDS011;20730;49.372;7.324;2023-12-04T06:58:53;38.42;;;18.33;;
34489;SDS011;20730;49.372;7.324;2023-12-04T07:01:19;36.45;;;17.02;;
34489;SDS011;20730;49.372;7.324;2023-12-04T07:03:48;28.63;;;14.30;;
34489;SDS011;20730;49.372;7.324;2023-12-04T07:06:14;40.60;;;19.17;;
34489;SDS011;20730;49.372;7.324;2023-12-04T07:08:41;31.48;;;15.45;;
34489;SDS011;20730;49.372;7.324;2023-12-04T07:11:08;34.15;;;16.38;;
34489;SDS011;20730;49.372;7.324;2023-12-04T07:13:34;31.88;;;15.90;;
34489;SDS011;20730;49.372;7.324;2023-12-04T07:16:01;31.92;;;15.30;;
34489;SDS011;20730;49.372;7.324;2023-12-04T07:18:29;41.53;;;17.85;;
34489;SDS011;20730;49.372;7.324;2023-12-04T07:20:56;35.72;;;17.92;;
34489;SDS011;20730;49.372;7.324;2023-12-04T07:23:22;40.22;;;19.30;;
34489;SDS011;20730;49.372;7.324;2023-12-04T07:25:53;40.15;;;19.40;;
34489;SDS011;20730;49.372;7.324;2023-12-04T07:28:20;40.80;;;19.90;;
34489;SDS011;20730;49.372;7.324;2023-12-04T07:30:46;40.50;;;18.45;;
34489;SDS011;20730;49.372;7.324;2023-12-04T07:33:13;42.10;;;19.40;;
34489;SDS011;20730;49.372;7.324;2023-12-04T07:35:40;33.33;;;17.13;;
34489;SDS011;20730;49.372;7.324;2023-12-04T07:38:07;36.85;;;19.00;;
34489;SDS011;20730;49.372;7.324;2023-12-04T07:40:33;40.17;;;20.02;;
34489;SDS011;20730;49.372;7.324;2023-12-04T07:43:00;38.95;;;20.17;;
34489;SDS011;20730;49.372;7.324;2023-12-04T07:45:27;40.25;;;19.25;;
34489;SDS011;20730;49.372;7.324;2023-12-04T07:47:54;38.28;;;20.38;;
34489;SDS011;20730;49.372;7.324;2023-12-04T07:50:20;42.55;;;19.48;;
34489;SDS011;20730;49.372;7.324;2023-12-04T07:52:47;38.08;;;20.38;;
34489;SDS011;20730;49.372;7.324;2023-12-04T07:55:14;37.75;;;19.63;;
34489;SDS011;20730;49.372;7.324;2023-12-04T07:57:40;41.03;;;19.05;;
34489;SDS011;20730;49.372;7.324;2023-12-04T08:00:07;43.03;;;19.98;;
34489;SDS011;20730;49.372;7.324;2023-12-04T08:02:34;41.03;;;20.00;;
34489;SDS011;20730;49.372;7.324;2023-12-04T08:05:01;39.70;;;19.52;;
34489;SDS011;20730;49.372;7.324;2023-12-04T08:07:28;37.58;;;19.63;;
34489;SDS011;20730;49.372;7.324;2023-12-04T08:09:54;38.35;;;19.40;;
34489;SDS011;20730;49.372;7.324;2023-12-04T08:12:21;41.28;;;19.50;;
34489;SDS011;20730;49.372;7.324;2023-12-04T08:14:48;37.10;;;19.83;;
34489;SDS011;20730;49.372;7.324;2023-12-04T08:17:15;36.70;;;17.98;;
34489;SDS011;20730;49.372;7.324;2023-12-04T08:19:41;35.38;;;18.60;;
34489;SDS011;20730;49.372;7.324;2023-12-04T08:22:08;36.08;;;18.73;;
34489;SDS011;20730;49.372;7.324;2023-12-04T08:24:35;38.58;;;19.35;;
34489;SDS011;20730;49.372;7.324;2023-12-04T08:27:02;39.08;;;18.27;;
34489;SDS011;20730;49.372;7.324;2023-12-04T08:29:28;35.33;;;18.52;;
34489;SDS011;20730;49.372;7.324;2023-12-04T08:31:55;32.20;;;17.73;;
34489;SDS011;20730;49.372;7.324;2023-12-04T08:34:22;35.22;;;18.83;;
34489;SDS011;20730;49.372;7.324;2023-12-04T08:36:48;33.05;;;17.88;;
34489;SDS011;20730;49.372;7.324;2023-12-04T08:39:15;35.55;;;17.63;;
34489;SDS011;20730;49.372;7.324;2023-12-04T08:41:45;38.25;;;19.75;;
34489;SDS011;20730;49.372;7.324;2023-12-04T08:44:26;39.95;;;19.20;;
34489;SDS011;20730;49.372;7.324;2023-12-04T08:46:54;34.90;;;17.45;;
34489;SDS011;20730;49.372;7.324;2023-12-04T08:49:21;37.25;;;18.83;;
34489;SDS011;20730;49.372;7.324;2023-12-04T08:51:51;37.53;;;19.00;;
34489;SDS011;20730;49.372;7.324;2023-12-04T08:54:19;35.55;;;18.83;;
34489;SDS011;20730;49.372;7.324;2023-12-04T08:56:45;32.92;;;16.75;;
34489;SDS011;20730;49.372;7.324;2023-12-04T08:59:12;34.03;;;16.90;;
34489;SDS011;20730;49.372;7.324;2023-12-04T09:01:39;35.25;;;18.75;;
34489;SDS011;20730;49.372;7.324;2023-12-04T09:04:07;39.28;;;18.20;;
34489;SDS011;20730;49.372;7.324;2023-12-04T09:06:34;38.72;;;18.60;;
34489;SDS011;20730;49.372;7.324;2023-12-04T09:09:04;32.42;;;17.25;;
34489;SDS011;20730;49.372;7.324;2023-12-04T09:11:40;37.08;;;18.27;;
34489;SDS011;20730;49.372;7.324;2023-12-04T09:14:10;39.13;;;21.08;;
34489;SDS011;20730;49.372;7.324;2023-12-04T09:16:37;34.85;;;18.55;;
34489;SDS011;20730;49.372;7.324;2023-12-04T09:19:04;33.60;;;18.15;;
34489;SDS011;20730;49.372;7.324;2023-12-04T09:21:31;37.45;;;18.35;;
34489;SDS011;20730;49.372;7.324;2023-12-04T09:23:58;33.13;;;17.77;;
34489;SDS011;20730;49.372;7.324;2023-12-04T09:26:24;34.15;;;17.83;;
34489;SDS011;20730;49.372;7.324;2023-12-04T09:28:51;38.10;;;19.23;;
34489;SDS011;20730;49.372;7.324;2023-12-04T09:31:18;34.92;;;18.15;;
34489;SDS011;20730;49.372;7.324;2023-12-04T09:33:46;32.67;;;18.08;;
34489;SDS011;20730;49.372;7.324;2023-12-04T09:36:14;34.38;;;18.27;;
34489;SDS011;20730;49.372;7.324;2023-12-04T09:38:40;35.20;;;18.60;;
34489;SDS011;20730;49.372;7.324;2023-12-04T09:41:08;35.05;;;19.17;;
34489;SDS011;20730;49.372;7.324;2023-12-04T09:43:35;38.55;;;20.77;;
34489;SDS011;20730;49.372;7.324;2023-12-04T09:46:02;38.30;;;21.33;;
34489;SDS011;20730;49.372;7.324;2023-12-04T09:48:31;41.67;;;21.85;;
34489;SDS011;20730;49.372;7.324;2023-12-04T09:50:58;39.60;;;22.38;;
34489;SDS011;20730;49.372;7.324;2023-12-04T09:53:26;43.40;;;21.67;;
34489;SDS011;20730;49.372;7.324;2023-12-04T09:55:53;35.05;;;20.08;;
34489;SDS011;20730;49.372;7.324;2023-12-04T09:58:20;33.75;;;17.80;;
34489;SDS011;20730;49.372;7.324;2023-12-04T10:00:47;33.13;;;16.77;;
34489;SDS011;20730;49.372;7.324;2023-12-04T10:03:14;29.70;;;15.60;;
34489;SDS011;20730;49.372;7.324;2023-12-04T10:05:43;33.28;;;18.00;;
34489;SDS011;20730;49.372;7.324;2023-12-04T10:08:10;34.20;;;18.60;;
34489;SDS011;20730;49.372;7.324;2023-12-04T10:10:37;32.70;;;18.58;;
34489;SDS011;20730;49.372;7.324;2023-12-04T10:13:04;33.88;;;18.92;;
34489;SDS011;20730;49.372;7.324;2023-12-04T10:15:30;31.00;;;18.58;;
34489;SDS011;20730;49.372;7.324;2023-12-04T10:17:57;34.90;;;18.38;;
34489;SDS011;20730;49.372;7.324;2023-12-04T10:20:24;38.10;;;18.35;;
34489;SDS011;20730;49.372;7.324;2023-12-04T10:25:22;35.47;;;17.50;;
34489;SDS011;20730;49.372;7.324;2023-12-04T10:27:52;36.22;;;19.92;;
34489;SDS011;20730;49.372;7.324;2023-12-04T10:30:28;34.47;;;17.30;;
34489;SDS011;20730;49.372;7.324;2023-12-04T10:32:57;37.47;;;19.45;;
34489;SDS011;20730;49.372;7.324;2023-12-04T10:35:34;30.88;;;15.23;;
34489;SDS011;20730;49.372;7.324;2023-12-04T10:38:05;34.10;;;17.58;;
34489;SDS011;20730;49.372;7.324;2023-12-04T10:40:33;36.80;;;17.50;;
34489;SDS011;20730;49.372;7.324;2023-12-04T10:43:11;31.80;;;16.05;;
34489;SDS011;20730;49.372;7.324;2023-12-04T10:45:42;33.17;;;17.05;;
34489;SDS011;20730;49.372;7.324;2023-12-04T10:48:10;26.45;;;13.35;;
34489;SDS011;20730;49.372;7.324;2023-12-04T10:50:38;30.67;;;16.35;;
34489;SDS011;20730;49.372;7.324;2023-12-04T10:53:09;29.80;;;15.63;;
34489;SDS011;20730;49.372;7.324;2023-12-04T10:55:37;27.15;;;15.82;;
34489;SDS011;20730;49.372;7.324;2023-12-04T10:58:09;28.30;;;14.68;;
34489;SDS011;20730;49.372;7.324;2023-12-04T11:00:45;28.60;;;15.38;;
34489;SDS011;20730;49.372;7.324;2023-12-04T11:03:13;28.63;;;14.63;;
34489;SDS011;20730;49.372;7.324;2023-12-04T11:05:44;27.60;;;14.65;;
34489;SDS011;20730;49.372;7.324;2023-12-04T11:08:11;28.30;;;15.32;;
34489;SDS011;20730;49.372;7.324;2023-12-04T11:13:17;28.20;;;14.80;;
34489;SDS011;20730;49.372;7.324;2023-12-04T11:15:48;30.00;;;14.45;;
34489;SDS011;20730;49.372;7.324;2023-12-04T11:18:17;26.67;;;14.35;;
34489;SDS011;20730;49.372;7.324;2023-12-04T11:20:49;26.73;;;14.32;;
34489;SDS011;20730;49.372;7.324;2023-12-04T11:23:19;26.27;;;14.32;;
34489;SDS011;20730;49.372;7.324;2023-12-04T11:25:46;24.08;;;12.52;;
34489;SDS011;20730;49.372;7.324;2023-12-04T11:28:14;24.25;;;13.68;;
34489;SDS011;20730;49.372;7.324;2023-12-04T11:30:42;22.42;;;13.02;;
34489;SDS011;20730;49.372;7.324;2023-12-04T11:33:09;25.90;;;13.52;;
34489;SDS011;20730;49.372;7.324;2023-12-04T11:35:38;25.58;;;13.63;;
34489;SDS011;20730;49.372;7.324;2023-12-04T11:40:35;23.38;;;12.13;;
34489;SDS011;20730;49.372;7.324;2023-12-04T11:43:16;24.40;;;12.93;;
34489;SDS011;20730;49.372;7.324;2023-12-04T11:45:48;24.35;;;13.48;;
34489;SDS011;20730;49.372;7.324;2023-12-04T11:48:16;26.65;;;14.00;;
34489;SDS011;20730;49.372;7.324;2023-12-04T11:50:43;25.13;;;12.93;;
34489;SDS011;20730;49.372;7.324;2023-12-04T11:53:11;29.02;;;14.32;;
34489;SDS011;20730;49.372;7.324;2023-12-04T11:55:40;24.20;;;14.10;;
34489;SDS011;20730;49.372;7.324;2023-12-04T11:58:10;25.10;;;13.63;;
34489;SDS011;20730;49.372;7.324;2023-12-04T12:00:38;24.20;;;13.77;;
34489;SDS011;20730;49.372;7.324;2023-12-04T12:03:05;20.98;;;12.45;;
34489;SDS011;20730;49.372;7.324;2023-12-04T12:05:48;21.05;;;12.82;;
34489;SDS011;20730;49.372;7.324;2023-12-04T12:08:17;22.80;;;12.77;;
34489;SDS011;20730;49.372;7.324;2023-12-04T12:10:44;19.58;;;11.32;;
34489;SDS011;20730;49.372;7.324;2023-12-04T12:13:12;17.10;;;10.82;;
34489;SDS011;20730;49.372;7.324;2023-12-04T12:15:38;18.75;;;10.63;;
34489;SDS011;20730;49.372;7.324;2023-12-04T12:18:05;16.15;;;10.07;;
34489;SDS011;20730;49.372;7.324;2023-12-04T12:20:32;18.05;;;11.30;;
34489;SDS011;20730;49.372;7.324;2023-12-04T12:25:29;17.55;;;9.25;;
34489;SDS011;20730;49.372;7.324;2023-12-04T12:27:56;20.15;;;10.77;;
34489;SDS011;20730;49.372;7.324;2023-12-04T12:30:23;18.02;;;11.32;;
34489;SDS011;20730;49.372;7.324;2023-12-04T12:32:50;18.35;;;10.52;;
34489;SDS011;20730;49.372;7.324;2023-12-04T12:35:18;20.17;;;10.15;;
34489;SDS011;20730;49.372;7.324;2023-12-04T12:37:45;17.88;;;10.95;;
34489;SDS011;20730;49.372;7.324;2023-12-04T12:40:12;20.27;;;10.77;;
34489;SDS011;20730;49.372;7.324;2023-12-04T12:42:39;19.88;;;10.95;;
34489;SDS011;20730;49.372;7.324;2023-12-04T12:45:08;21.08;;;10.93;;
34489;SDS011;20730;49.372;7.324;2023-12-04T12:47:40;19.77;;;10.90;;
34489;SDS011;20730;49.372;7.324;2023-12-04T12:50:08;20.52;;;11.30;;
34489;SDS011;20730;49.372;7.324;2023-12-04T12:52:37;19.70;;;11.10;;
34489;SDS011;20730;49.372;7.324;2023-12-04T12:55:04;20.10;;;10.88;;
34489;SDS011;20730;49.372;7.324;2023-12-04T12:57:31;19.42;;;10.77;;
34489;SDS011;20730;49.372;7.324;2023-12-04T12:59:58;19.95;;;10.40;;
34489;SDS011;20730;49.372;7.324;2023-12-04T13:02:25;18.67;;;10.60;;
34489;SDS011;20730;49.372;7.324;2023-12-04T13:04:52;17.55;;;10.35;;
34489;SDS011;20730;49.372;7.324;2023-12-04T13:07:19;14.85;;;9.32;;
34489;SDS011;20730;49.372;7.324;2023-12-04T13:09:47;15.43;;;9.30;;
34489;SDS011;20730;49.372;7.324;2023-12-04T13:12:14;14.07;;;8.55;;
34489;SDS011;20730;49.372;7.324;2023-12-04T13:14:41;16.98;;;8.77;;
34489;SDS011;20730;49.372;7.324;2023-12-04T13:17:07;14.45;;;8.63;;
34489;SDS011;20730;49.372;7.324;2023-12-04T13:19:36;15.10;;;8.60;;
34489;SDS011;20730;49.372;7.324;2023-12-04T13:22:03;13.45;;;7.68;;
34489;SDS011;20730;49.372;7.324;2023-12-04T13:24:31;14.15;;;8.35;;
34489;SDS011;20730;49.372;7.324;2023-12-04T13:26:57;16.77;;;7.80;;
34489;SDS011;20730;49.372;7.324;2023-12-04T13:29:24;13.35;;;7.80;;
34489;SDS011;20730;49.372;7.324;2023-12-04T13:31:51;10.68;;;7.28;;
34489;SDS011;20730;49.372;7.324;2023-12-04T13:34:18;10.73;;;6.88;;
34489;SDS011;20730;49.372;7.324;2023-12-04T13:36:44;11.82;;;6.97;;
34489;SDS011;20730;49.372;7.324;2023-12-04T13:39:11;11.07;;;7.05;;
34489;SDS011;20730;49.372;7.324;2023-12-04T13:41:46;12.70;;;7.60;;
34489;SDS011;20730;49.372;7.324;2023-12-04T13:44:32;10.18;;;6.40;;
34489;SDS011;20730;49.372;7.324;2023-12-04T13:46:59;9.18;;;5.47;;
34489;SDS011;20730;49.372;7.324;2023-12-04T13:49:26;8.68;;;5.07;;
34489;SDS011;20730;49.372;7.324;2023-12-04T13:51:54;7.20;;;5.00;;
34489;SDS011;20730;49.372;7.324;2023-12-04T13:54:21;9.32;;;5.50;;
34489;SDS011;20730;49.372;7.324;2023-12-04T13:56:54;7.35;;;5.50;;
34489;SDS011;20730;49.372;7.324;2023-12-04T13:59:22;7.18;;;5.20;;
34489;SDS011;20730;49.372;7.324;2023-12-04T14:01:50;6.90;;;4.00;;
34489;SDS011;20730;49.372;7.324;2023-12-04T14:04:18;7.13;;;4.50;;
34489;SDS011;20730;49.372;7.324;2023-12-04T14:06:45;8.68;;;5.40;;
34489;SDS011;20730;49.372;7.324;2023-12-04T14:09:13;8.63;;;4.82;;
34489;SDS011;20730;49.372;7.324;2023-12-04T14:11:43;8.82;;;5.45;;
34489;SDS011;20730;49.372;7.324;2023-12-04T14:14:14;9.57;;;4.90;;
34489;SDS011;20730;49.372;7.324;2023-12-04T14:16:40;5.72;;;4.18;;
34489;SDS011;20730;49.372;7.324;2023-12-04T14:19:08;6.75;;;4.78;;
34489;SDS011;20730;49.372;7.324;2023-12-04T14:21:35;8.48;;;5.68;;
34489;SDS011;20730;49.372;7.324;2023-12-04T14:24:02;8.35;;;5.60;;
34489;SDS011;20730;49.372;7.324;2023-12-04T14:26:28;7.55;;;5.22;;
34489;SDS011;20730;49.372;7.324;2023-12-04T14:28:55;8.43;;;5.63;;
34489;SDS011;20730;49.372;7.324;2023-12-04T14:31:23;8.13;;;5.40;;
34489;SDS011;20730;49.372;7.324;2023-12-04T14:33:50;9.02;;;5.35;;
34489;SDS011;20730;49.372;7.324;2023-12-04T14:36:17;8.82;;;5.78;;